Time;durP1;ratioP1;P1;durP2;ratioP2;P2;SDS_P1;SDS_P2;PMS_P1;PMS_P2;Temp;Humidity;BMP_temperature;BMP_pressure;BME280_temperature;BME280_humidity;BME280_pressure;Samples;Min_cycle;Max_cycle;Signal;HPM_P1;HPM_P2
2022/11/29 02:23:13;;;;;;;52.83;18.65;;;;;;;-0.18;100.00;100548.70;1782463;79;27120;-78
2022/11/29 02:26:10;;;;;;;74.90;18.98;;;;;;;-0.21;100.00;100547.80;1751085;80;21023;-76
2022/11/29 02:29:11;;;;;;;51.83;18.75;;;;;;;-0.15;100.00;100555.01;1761466;80;21503;-76
2022/11/29 02:32:21;;;;;;;73.17;19.65;;;;;;;-0.09;100.00;100551.95;1752800;80;21413;-76
2022/11/29 02:35:24;;;;;;;54.70;19.27;;;;;;;-0.04;100.00;100550.24;1756628;80;20940;-76
2022/11/29 02:38:23;;;;;;;59.25;18.02;;;;;;;-0.01;100.00;100559.77;1754130;80;20927;-76
2022/11/29 02:40:55;;;;;;;57.13;18.50;;;;;;;-0.04;100.00;100562.39;1753668;81;20978;-76
2022/11/29 02:43:59;;;;;;;64.15;18.50;;;;;;;-0.10;100.00;100564.62;1756341;81;21872;-76
2022/11/29 02:47:00;;;;;;;60.95;18.82;;;;;;;-0.10;100.00;100567.32;1680183;83;21012;-79
2022/11/29 02:50:12;;;;;;;56.45;17.42;;;;;;;-0.13;100.00;100563.72;1699425;82;20997;-77
2022/11/29 02:53:02;;;;;;;47.62;17.20;;;;;;;-0.13;100.00;100558.31;1758711;80;21402;-76
2022/11/29 02:55:53;;;;;;;61.63;17.42;;;;;;;-0.10;100.00;100569.19;1744092;81;21165;-78
2022/11/29 02:59:05;;;;;;;48.70;17.65;;;;;;;-0.12;100.00;100562.66;1757398;80;21252;-75
2022/11/29 03:01:57;;;;;;;56.98;18.25;;;;;;;-0.12;100.00;100564.54;1758203;80;21074;-74
2022/11/29 03:04:35;;;;;;;69.75;20.72;;;;;;;-0.14;100.00;100558.54;1779450;80;21092;-78
2022/11/29 03:07:33;;;;;;;61.63;19.92;;;;;;;-0.13;100.00;100556.97;1769994;80;21003;-75
2022/11/29 03:10:12;;;;;;;61.88;21.85;;;;;;;-0.08;100.00;100561.18;1768360;80;21058;-75
2022/11/29 03:12:47;;;;;;;62.98;22.70;;;;;;;-0.08;100.00;100561.18;1729363;80;21304;-77
2022/11/29 03:15:37;;;;;;;57.98;23.85;;;;;;;-0.08;100.00;100567.10;1767859;79;21081;-75
2022/11/29 03:18:45;;;;;;;50.83;19.27;;;;;;;-0.07;100.00;100571.45;1760898;80;21093;-75
2022/11/29 03:21:42;;;;;;;48.85;18.77;;;;;;;-0.08;100.00;100570.62;1707961;79;20975;-75
2022/11/29 03:24:26;;;;;;;46.37;17.55;;;;;;;-0.07;100.00;100568.75;1738476;81;21585;-74
2022/11/29 03:27:02;;;;;;;42.13;16.40;;;;;;;-0.07;100.00;100576.84;1747310;80;21927;-79
2022/11/29 03:29:41;;;;;;;51.20;17.00;;;;;;;-0.08;100.00;100577.38;1729532;80;21008;-78
2022/11/29 03:32:16;;;;;;;35.08;14.15;;;;;;;-0.09;100.00;100584.34;1732901;81;21012;-75
2022/11/29 03:34:57;;;;;;;41.58;14.68;;;;;;;-0.12;100.00;100588.83;1751722;80;20983;-75
2022/11/29 03:37:33;;;;;;;38.98;14.55;;;;;;;-0.16;100.00;100589.80;1756788;80;21075;-78
2022/11/29 03:40:10;;;;;;;36.05;14.68;;;;;;;-0.15;100.00;100585.22;1753326;80;21181;-76
2022/11/29 03:42:55;;;;;;;45.67;16.42;;;;;;;-0.17;100.00;100578.70;1733558;80;21519;-75
2022/11/29 03:45:36;;;;;;;42.83;14.98;;;;;;;-0.18;100.00;100578.39;1683443;82;20980;-74
2022/11/29 03:48:10;;;;;;;40.33;13.93;;;;;;;-0.19;100.00;100588.88;1746868;80;21181;-74
2022/11/29 03:50:41;;;;;;;34.25;14.28;;;;;;;-0.22;100.00;100596.07;1727600;80;20959;-75
2022/11/29 03:53:33;;;;;;;43.28;14.75;;;;;;;-0.25;100.00;100589.77;1730276;81;22366;-76
2022/11/29 03:56:02;;;;;;;37.20;15.13;;;;;;;-0.25;100.00;100587.06;1746165;81;21469;-74
2022/11/29 03:58:57;;;;;;;40.88;15.08;;;;;;;-0.25;100.00;100589.77;1749469;80;20915;-72
2022/11/29 04:01:48;;;;;;;42.83;14.85;;;;;;;-0.25;100.00;100588.41;1753762;80;21811;-77
2022/11/29 04:04:57;;;;;;;43.05;15.90;;;;;;;-0.24;100.00;100592.77;1758060;80;21034;-75
2022/11/29 04:07:50;;;;;;;36.00;13.85;;;;;;;-0.27;100.00;100585.11;1725398;80;21861;-72
2022/11/29 04:10:57;;;;;;;29.52;11.73;;;;;;;-0.28;100.00;100592.90;1726330;82;21106;-73
2022/11/29 04:13:50;;;;;;;27.32;11.55;;;;;;;-0.30;100.00;100591.46;1729807;81;21469;-78
2022/11/29 04:16:49;;;;;;;28.92;11.28;;;;;;;-0.34;100.00;100587.86;1732676;80;21070;-73
2022/11/29 04:19:41;;;;;;;25.20;10.00;;;;;;;-0.35;100.00;100587.55;1745196;80;21152;-73
2022/11/29 04:22:50;;;;;;;21.15;9.05;;;;;;;-0.37;100.00;100588.29;1758222;80;21747;-79
2022/11/29 04:25:41;;;;;;;20.25;8.48;;;;;;;-0.37;100.00;100599.61;1742438;80;20979;-76
2022/11/29 04:28:28;;;;;;;21.35;9.08;;;;;;;-0.35;100.00;100597.52;1749599;80;21140;-71
2022/11/29 04:31:06;;;;;;;21.50;10.35;;;;;;;-0.35;100.00;100591.59;1755310;80;20964;-72
2022/11/29 04:33:55;;;;;;;25.00;11.08;;;;;;;-0.35;100.00;100602.39;1705372;82;21057;-71
2022/11/29 04:37:02;;;;;;;22.48;10.00;;;;;;;-0.37;100.00;100604.48;1660238;84;22146;-77
2022/11/29 04:39:54;;;;;;;21.48;8.63;;;;;;;-0.38;100.00;100604.70;1667106;83;21105;-75
2022/11/29 04:42:51;;;;;;;19.98;8.80;;;;;;;-0.38;100.00;100608.22;1748463;80;21421;-75
2022/11/29 04:45:36;;;;;;;20.72;9.70;;;;;;;-0.38;100.00;100604.17;1683605;83;21094;-75
2022/11/29 04:48:23;;;;;;;21.82;8.43;;;;;;;-0.37;100.00;100613.92;1687357;83;21012;-77
2022/11/29 04:51:14;;;;;;;22.87;8.53;;;;;;;-0.35;100.00;100609.66;1721609;81;21562;-76
2022/11/29 04:54:07;;;;;;;22.00;10.05;;;;;;;-0.37;100.00;100605.83;1724755;82;20927;-77
2022/11/29 04:56:53;;;;;;;23.85;9.93;;;;;;;-0.36;100.00;100606.66;1729006;82;21033;-75
2022/11/29 04:59:25;;;;;;;27.67;12.28;;;;;;;-0.38;100.00;100611.44;1754796;80;21121;-75
2022/11/29 05:02:20;;;;;;;33.98;14.70;;;;;;;-0.39;100.00;100605.22;1735288;81;20999;-74
2022/11/29 05:05:04;;;;;;;33.65;14.83;;;;;;;-0.36;100.00;100610.70;1722471;81;21165;-76
2022/11/29 05:08:01;;;;;;;40.85;16.30;;;;;;;-0.36;100.00;100606.66;1707063;83;21055;-80
2022/11/29 05:10:46;;;;;;;29.87;13.45;;;;;;;-0.35;100.00;100613.70;1705272;83;21226;-79
2022/11/29 05:13:30;;;;;;;26.48;11.28;;;;;;;-0.33;100.00;100615.66;1677115;84;21087;-83
2022/11/29 05:16:20;;;;;;;20.85;10.58;;;;;;;-0.31;100.00;100622.19;1652723;84;21134;-80
2022/11/29 05:19:21;;;;;;;21.10;10.63;;;;;;;-0.36;100.00;100624.19;1678266;84;21900;-80
2022/11/29 05:22:23;;;;;;;22.15;9.83;;;;;;;-0.36;100.00;100629.59;1680606;84;21189;-83
2022/11/29 05:25:17;;;;;;;22.62;10.05;;;;;;;-0.41;100.00;100631.59;1681011;84;26343;-81
2022/11/29 05:28:01;;;;;;;20.48;9.55;;;;;;;-0.46;100.00;100635.98;1673716;84;21036;-78
2022/11/29 05:30:50;;;;;;;22.02;9.48;;;;;;;-0.47;100.00;100636.50;1695060;82;20992;-81
2022/11/29 05:33:46;;;;;;;23.98;8.95;;;;;;;-0.47;100.00;100641.07;1694250;83;21805;-80
2022/11/29 05:36:30;;;;;;;19.98;9.63;;;;;;;-0.47;100.00;100649.16;1692108;83;20959;-78
2022/11/29 05:39:33;;;;;;;16.23;8.65;;;;;;;-0.49;100.00;100648.03;1689897;83;20995;-75
2022/11/29 05:42:09;;;;;;;;;;;;;;;-0.49;100.00;100652.59;1633374;83;21086;-75
2022/11/29 05:45:02;;;;;;;21.20;10.38;;;;;;;-0.51;100.00;100647.94;1695219;82;20136;-84
2022/11/29 05:47:34;;;;;;;23.40;10.20;;;;;;;-0.48;100.00;100646.16;1725745;82;23627;-82
2022/11/29 05:50:23;;;;;;;;;;;;;;;-0.47;100.00;100651.34;1711429;82;21090;-76
2022/11/29 05:53:17;;;;;;;20.35;9.70;;;;;;;-0.49;100.00;100665.56;1659203;84;20163;-76
2022/11/29 05:56:08;;;;;;;16.50;8.55;;;;;;;-0.52;100.00;100670.56;1672296;84;21042;-73
2022/11/29 05:58:49;;;;;;;14.30;8.28;;;;;;;-0.55;100.00;100670.99;1729119;82;21058;-74
2022/11/29 06:01:39;;;;;;;18.10;9.83;;;;;;;-0.55;100.00;100677.73;1727526;81;21312;-75
2022/11/29 06:04:32;;;;;;;18.20;9.18;;;;;;;-0.55;100.00;100673.69;1721858;81;21049;-80
2022/11/29 06:07:13;;;;;;;22.58;9.95;;;;;;;-0.55;100.00;100677.73;1729932;81;20995;-75
